createdAt,value
2018-12-19T00:03:56.275Z,5.80
2018-12-19T00:08:51.588Z,5.80
2018-12-19T00:13:46.547Z,5.80
2018-12-19T00:18:41.649Z,5.80
2018-12-19T00:23:36.583Z,5.80
2018-12-19T00:28:31.416Z,5.80
2018-12-19T00:33:26.321Z,5.70
2018-12-19T00:38:21.302Z,5.70
2018-12-19T00:43:15.980Z,5.70
2018-12-19T00:48:12.281Z,5.70
2018-12-19T00:53:07.292Z,5.80
2018-12-19T00:58:02.235Z,5.80
2018-12-19T01:02:57.603Z,5.80
2018-12-19T01:07:52.595Z,5.80
2018-12-19T01:12:47.858Z,5.80
2018-12-19T01:17:42.960Z,5.90
2018-12-19T01:22:37.680Z,5.90
2018-12-19T01:27:34.159Z,5.90
2018-12-19T01:32:28.997Z,6.00
2018-12-19T01:37:24.041Z,6.00
2018-12-19T01:42:18.845Z,6.00
2018-12-19T01:47:13.787Z,6.00
2018-12-19T01:52:09.644Z,6.00
2018-12-19T01:57:04.468Z,6.00
2018-12-19T02:01:59.133Z,6.10
2018-12-19T02:06:53.817Z,6.10
2018-12-19T02:11:48.556Z,6.10
2018-12-19T02:16:43.210Z,6.10
2018-12-19T02:21:38.066Z,6.10
2018-12-19T02:26:32.736Z,6.10
2018-12-19T02:31:27.502Z,6.10
2018-12-19T02:36:22.262Z,6.10
2018-12-19T02:41:16.933Z,6.10
2018-12-19T02:46:11.662Z,6.10
2018-12-19T02:51:06.423Z,6.10
2018-12-19T02:56:01.259Z,6.10
2018-12-19T03:00:55.925Z,6.10
2018-12-19T03:05:50.764Z,6.10
2018-12-19T03:10:46.206Z,6.10
2018-12-19T03:15:40.965Z,6.10
2018-12-19T03:20:35.749Z,6.10
2018-12-19T03:25:30.577Z,6.10
2018-12-19T03:30:27.005Z,6.20
2018-12-19T03:35:21.725Z,6.20
2018-12-19T03:40:16.513Z,6.30
2018-12-19T03:45:11.334Z,6.30
2018-12-19T03:50:06.607Z,6.30
2018-12-19T03:55:01.500Z,6.40
2018-12-19T03:59:56.205Z,6.40
2018-12-19T04:04:50.887Z,6.50
2018-12-19T04:09:45.632Z,6.50
2018-12-19T04:14:41.386Z,6.50
2018-12-19T04:19:36.230Z,6.50
2018-12-19T04:24:30.967Z,6.50
2018-12-19T04:29:25.621Z,6.40
2018-12-19T04:34:20.299Z,6.40
2018-12-19T04:39:14.943Z,6.40
2018-12-19T04:44:09.646Z,6.40
2018-12-19T04:49:04.331Z,6.50
2018-12-19T04:53:59.185Z,6.50
2018-12-19T04:58:56.495Z,6.50
2018-12-19T05:03:51.302Z,6.50
2018-12-19T05:08:46.149Z,6.60
2018-12-19T05:13:40.923Z,6.60
2018-12-19T05:18:36.025Z,6.60
2018-12-19T05:23:30.724Z,6.70
2018-12-19T05:28:25.375Z,6.70
2018-12-19T05:33:20.043Z,6.80
2018-12-19T05:38:14.730Z,6.80
2018-12-19T05:43:09.430Z,6.80
2018-12-19T05:48:04.135Z,6.90
2018-12-19T05:52:58.812Z,7.00
2018-12-19T05:57:53.525Z,7.10
2018-12-19T06:02:48.211Z,7.10
2018-12-19T06:07:43.628Z,7.20
2018-12-19T06:12:38.643Z,7.20
2018-12-19T06:17:33.291Z,7.30
2018-12-19T06:22:27.968Z,7.40
2018-12-19T06:27:22.655Z,7.40
2018-12-19T06:32:17.346Z,7.40
2018-12-19T06:37:12.021Z,7.50
2018-12-19T06:42:06.707Z,7.50
2018-12-19T06:47:01.364Z,7.60
2018-12-19T06:51:56.039Z,7.60
2018-12-19T06:56:50.712Z,7.70
2018-12-19T07:01:45.421Z,7.80
2018-12-19T07:06:40.107Z,7.80
2018-12-19T07:11:34.763Z,7.90
2018-12-19T07:16:29.507Z,8.00
2018-12-19T07:21:24.204Z,8.00
2018-12-19T07:26:19.304Z,8.10
2018-12-19T07:31:13.951Z,8.20
2018-12-19T07:36:08.614Z,8.20
2018-12-19T07:41:03.286Z,8.30
2018-12-19T07:45:57.990Z,8.40
2018-12-19T07:50:52.757Z,8.40
2018-12-19T07:55:47.913Z,8.40
2018-12-19T08:00:42.615Z,8.50
2018-12-19T08:05:37.491Z,8.50
2018-12-19T08:10:32.216Z,8.30
2018-12-19T08:15:29.838Z,8.30
2018-12-19T08:20:24.531Z,8.10
2018-12-19T08:25:19.247Z,8.00
2018-12-19T08:30:13.914Z,8.00
2018-12-19T08:35:08.687Z,8.00
2018-12-19T08:40:04.521Z,8.00
2018-12-19T08:44:59.259Z,8.10
2018-12-19T08:49:53.966Z,8.20
2018-12-19T08:54:48.662Z,8.30
2018-12-19T08:59:43.358Z,8.50
2018-12-19T09:04:38.071Z,8.70
2018-12-19T09:09:32.741Z,9.00
2018-12-19T09:14:27.451Z,9.20
2018-12-19T09:19:22.109Z,9.60
2018-12-19T09:24:16.802Z,9.90
2018-12-19T09:29:11.675Z,10.10
2018-12-19T09:34:06.437Z,10.30
2018-12-19T09:39:01.107Z,10.50
2018-12-19T09:43:55.787Z,10.70
2018-12-19T09:48:50.488Z,10.80
2018-12-19T09:53:45.535Z,11.00
2018-12-19T09:58:40.320Z,11.20
2018-12-19T10:03:35.895Z,11.20
2018-12-19T10:08:30.582Z,11.10
2018-12-19T10:13:25.235Z,11.10
2018-12-19T10:18:19.938Z,10.80
2018-12-19T10:23:14.826Z,10.50
2018-12-19T10:28:09.580Z,10.30
2018-12-19T10:33:04.263Z,10.10
2018-12-19T10:37:58.969Z,10.10
2018-12-19T10:42:53.910Z,10.00
2018-12-19T10:47:48.603Z,9.90
2018-12-19T10:52:44.316Z,9.90
2018-12-19T10:57:39.084Z,10.00
2018-12-19T11:02:33.745Z,10.00
2018-12-19T11:07:28.536Z,10.10
2018-12-19T11:12:23.224Z,10.20
2018-12-19T11:17:17.910Z,10.20
2018-12-19T11:22:12.937Z,10.30
2018-12-19T11:27:07.671Z,10.40
2018-12-19T11:32:02.427Z,10.40
2018-12-19T11:36:57.155Z,10.70
2018-12-19T11:41:51.958Z,11.00
2018-12-19T11:46:46.650Z,11.20
2018-12-19T11:51:41.357Z,11.50
2018-12-19T11:56:36.209Z,11.60
2018-12-19T12:01:30.911Z,11.60
2018-12-19T12:06:25.672Z,11.60
2018-12-19T12:11:20.434Z,11.60
2018-12-19T12:16:15.112Z,11.60
2018-12-19T12:21:09.782Z,11.70
2018-12-19T12:26:04.477Z,11.80
2018-12-19T12:30:59.213Z,11.90
2018-12-19T12:35:54.511Z,12.00
2018-12-19T12:40:49.229Z,12.00
2018-12-19T12:45:43.864Z,12.10
2018-12-19T12:50:38.567Z,12.30
2018-12-19T12:55:33.294Z,12.40
2018-12-19T13:00:28.041Z,12.40
2018-12-19T13:05:24.517Z,12.40
2018-12-19T13:10:19.220Z,12.40
2018-12-19T13:15:15.991Z,12.40
2018-12-19T13:20:10.755Z,12.30
2018-12-19T13:25:05.605Z,12.30
2018-12-19T13:30:00.275Z,12.30
2018-12-19T13:34:55.005Z,12.30
2018-12-19T13:39:49.746Z,12.30
2018-12-19T13:44:44.399Z,12.10
2018-12-19T13:49:39.124Z,11.80
2018-12-19T13:54:33.847Z,11.70
2018-12-19T13:59:28.574Z,11.60
2018-12-19T14:04:23.714Z,11.50
2018-12-19T14:09:18.444Z,11.40
2018-12-19T14:14:13.153Z,11.40
2018-12-19T14:19:07.943Z,11.40
2018-12-19T14:24:02.828Z,11.30
2018-12-19T14:28:57.589Z,11.20
2018-12-19T14:33:52.251Z,11.20
2018-12-19T14:38:47.009Z,11.10
2018-12-19T14:43:42.212Z,11.00
2018-12-19T14:48:36.955Z,11.00
2018-12-19T14:53:31.638Z,11.00
2018-12-19T14:58:26.403Z,11.00
2018-12-19T15:03:21.105Z,11.00
2018-12-19T15:08:15.867Z,10.90
2018-12-19T15:13:10.796Z,10.90
2018-12-19T15:18:05.836Z,10.80
2018-12-19T15:23:00.551Z,10.80
2018-12-19T15:27:55.282Z,10.80
2018-12-19T15:32:50.069Z,10.80
2018-12-19T15:37:44.939Z,10.70
2018-12-19T15:42:39.650Z,10.70
2018-12-19T15:47:34.371Z,10.80
2018-12-19T15:52:29.273Z,10.70
2018-12-19T15:57:23.968Z,10.70
2018-12-19T16:02:18.867Z,10.70
2018-12-19T16:07:13.681Z,10.60
2018-12-19T16:12:08.408Z,10.60
2018-12-19T16:17:03.119Z,10.60
2018-12-19T16:21:57.783Z,10.60
2018-12-19T16:26:52.483Z,10.50
2018-12-19T16:31:47.249Z,10.50
2018-12-19T16:36:41.971Z,10.50
2018-12-19T16:41:36.810Z,10.40
2018-12-19T16:46:31.505Z,10.30
2018-12-19T16:51:26.224Z,10.20
2018-12-19T16:56:21.006Z,10.10
2018-12-19T17:01:16.329Z,10.10
2018-12-19T17:06:11.061Z,10.10
2018-12-19T17:11:05.753Z,9.90
2018-12-19T17:16:00.536Z,9.80
2018-12-19T17:20:55.640Z,9.70
2018-12-19T17:25:50.382Z,9.60
2018-12-19T17:30:45.093Z,9.60
2018-12-19T17:35:39.922Z,9.60
2018-12-19T17:40:34.595Z,9.70
2018-12-19T17:45:29.323Z,9.70
2018-12-19T17:50:25.363Z,9.70
2018-12-19T17:55:20.911Z,9.70
2018-12-19T18:00:17.127Z,9.80
2018-12-19T18:05:12.406Z,9.80
2018-12-19T18:10:08.452Z,9.80
2018-12-19T18:15:03.723Z,9.80
2018-12-19T18:19:58.632Z,9.80
2018-12-19T18:24:55.173Z,9.90
2018-12-19T18:29:50.718Z,9.80
2018-12-19T18:34:45.797Z,9.90
2018-12-19T18:39:49.163Z,9.80
2018-12-19T18:44:52.406Z,9.80
2018-12-19T18:49:51.366Z,9.80
2018-12-19T18:54:48.900Z,9.80
2018-12-19T18:59:45.419Z,9.80
2018-12-19T19:04:42.338Z,9.80
2018-12-19T19:09:38.625Z,9.80
2018-12-19T19:14:33.985Z,9.70
2018-12-19T19:19:34.451Z,9.70
2018-12-19T19:24:34.490Z,9.70
2018-12-19T19:29:29.181Z,9.70
2018-12-19T19:34:25.488Z,9.70
2018-12-19T19:39:20.175Z,9.60
2018-12-19T19:44:14.842Z,9.60
2018-12-19T19:49:09.542Z,9.60
2018-12-19T19:54:04.276Z,9.60
2018-12-19T19:58:58.991Z,9.60
2018-12-19T20:03:53.780Z,9.50
2018-12-19T20:08:48.535Z,9.50
2018-12-19T20:13:43.226Z,9.40
2018-12-19T20:18:38.182Z,9.30
2018-12-19T20:23:32.910Z,9.20
2018-12-19T20:28:27.602Z,9.10
2018-12-19T20:33:22.733Z,9.10
2018-12-19T20:38:17.521Z,9.10
2018-12-19T20:43:12.227Z,9.00
2018-12-19T20:48:07.048Z,9.00
2018-12-19T20:53:01.950Z,9.00
2018-12-19T20:57:56.658Z,9.10
2018-12-19T21:02:51.562Z,9.00
2018-12-19T21:07:46.302Z,8.90
2018-12-19T21:12:40.990Z,8.90
2018-12-19T21:17:40.892Z,8.90
2018-12-19T21:22:35.571Z,9.00
2018-12-19T21:27:31.967Z,8.90
2018-12-19T21:32:26.721Z,8.90
2018-12-19T21:37:22.025Z,8.90
2018-12-19T21:42:16.888Z,8.90
2018-12-19T21:47:11.634Z,8.80
2018-12-19T21:52:06.399Z,8.80
2018-12-19T21:57:01.135Z,8.80
2018-12-19T22:01:57.369Z,8.80
2018-12-19T22:06:52.218Z,8.80
2018-12-19T22:11:47.125Z,8.80
2018-12-19T22:16:46.842Z,8.70
2018-12-19T22:21:41.616Z,8.70
2018-12-19T22:26:36.568Z,8.70
2018-12-19T22:31:31.338Z,8.60
2018-12-19T22:36:26.388Z,8.50
2018-12-19T22:41:21.382Z,8.40
2018-12-19T22:46:16.113Z,8.30
2018-12-19T22:51:10.852Z,8.20
2018-12-19T22:56:05.835Z,8.10
2018-12-19T23:03:09.902Z,8.00
2018-12-19T23:08:04.856Z,8.00
2018-12-19T23:12:59.957Z,7.80
2018-12-19T23:17:58.878Z,7.60
2018-12-19T23:22:54.008Z,7.50
2018-12-19T23:27:49.027Z,7.40
2018-12-19T23:32:44.998Z,7.30
2018-12-19T23:37:40.395Z,7.30
2018-12-19T23:42:36.761Z,7.30
2018-12-19T23:47:32.559Z,7.40
2018-12-19T23:52:27.685Z,7.40
2018-12-19T23:57:22.718Z,7.40
